sensor_id;sensor_type;location;lat;lon;timestamp;P1;durP1;ratioP1;P2;durP2;ratioP2
21777;SDS011;11050;52.222;20.916;2022-09-09T00:00:39;11.25;;;6.05;;
21777;SDS011;11050;52.222;20.916;2022-09-09T00:09:19;11.93;;;6.38;;
21777;SDS011;11050;52.222;20.916;2022-09-09T00:17:36;11.30;;;6.47;;
21777;SDS011;11050;52.222;20.916;2022-09-09T00:20:32;12.20;;;6.70;;
21777;SDS011;11050;52.222;20.916;2022-09-09T00:23:14;13.63;;;7.10;;
21777;SDS011;11050;52.222;20.916;2022-09-09T00:25:52;11.02;;;7.22;;
21777;SDS011;11050;52.222;20.916;2022-09-09T00:28:33;12.75;;;7.18;;
21777;SDS011;11050;52.222;20.916;2022-09-09T00:31:20;11.50;;;7.20;;
21777;SDS011;11050;52.222;20.916;2022-09-09T00:33:53;12.20;;;7.28;;
21777;SDS011;11050;52.222;20.916;2022-09-09T00:36:23;11.90;;;7.45;;
21777;SDS011;11050;52.222;20.916;2022-09-09T00:38:56;15.73;;;7.55;;
21777;SDS011;11050;52.222;20.916;2022-09-09T00:41:39;13.10;;;7.45;;
21777;SDS011;11050;52.222;20.916;2022-09-09T00:44:34;12.45;;;7.63;;
21777;SDS011;11050;52.222;20.916;2022-09-09T00:50:05;14.63;;;8.70;;
21777;SDS011;11050;52.222;20.916;2022-09-09T00:57:46;13.45;;;8.00;;
21777;SDS011;11050;52.222;20.916;2022-09-09T01:00:18;13.30;;;8.68;;
21777;SDS011;11050;52.222;20.916;2022-09-09T01:09:13;13.90;;;8.57;;
21777;SDS011;11050;52.222;20.916;2022-09-09T01:12:23;15.77;;;8.25;;
21777;SDS011;11050;52.222;20.916;2022-09-09T01:15:08;15.15;;;8.20;;
21777;SDS011;11050;52.222;20.916;2022-09-09T01:17:50;14.80;;;8.55;;
21777;SDS011;11050;52.222;20.916;2022-09-09T01:20:31;13.40;;;8.48;;
21777;SDS011;11050;52.222;20.916;2022-09-09T01:26:52;16.88;;;9.30;;
21777;SDS011;11050;52.222;20.916;2022-09-09T01:29:25;14.55;;;9.13;;
21777;SDS011;11050;52.222;20.916;2022-09-09T01:34:28;17.55;;;9.27;;
21777;SDS011;11050;52.222;20.916;2022-09-09T01:37:10;16.80;;;9.45;;
21777;SDS011;11050;52.222;20.916;2022-09-09T01:39:38;14.82;;;8.93;;
21777;SDS011;11050;52.222;20.916;2022-09-09T01:42:09;15.13;;;9.20;;
21777;SDS011;11050;52.222;20.916;2022-09-09T01:44:38;14.55;;;7.97;;
21777;SDS011;11050;52.222;20.916;2022-09-09T01:47:04;17.10;;;9.48;;
21777;SDS011;11050;52.222;20.916;2022-09-09T01:49:31;14.07;;;8.23;;
21777;SDS011;11050;52.222;20.916;2022-09-09T01:51:58;16.20;;;9.43;;
21777;SDS011;11050;52.222;20.916;2022-09-09T01:54:26;13.85;;;9.18;;
21777;SDS011;11050;52.222;20.916;2022-09-09T01:57:42;14.55;;;9.20;;
21777;SDS011;11050;52.222;20.916;2022-09-09T02:00:08;11.20;;;8.45;;
21777;SDS011;11050;52.222;20.916;2022-09-09T02:08:05;14.45;;;9.23;;
21777;SDS011;11050;52.222;20.916;2022-09-09T02:13:15;15.23;;;9.63;;
21777;SDS011;11050;52.222;20.916;2022-09-09T02:18:27;13.88;;;9.38;;
21777;SDS011;11050;52.222;20.916;2022-09-09T02:21:28;15.85;;;10.48;;
21777;SDS011;11050;52.222;20.916;2022-09-09T02:23:57;16.98;;;9.98;;
21777;SDS011;11050;52.222;20.916;2022-09-09T02:26:29;15.20;;;9.20;;
21777;SDS011;11050;52.222;20.916;2022-09-09T02:29:02;13.43;;;9.32;;
21777;SDS011;11050;52.222;20.916;2022-09-09T02:31:36;17.73;;;10.20;;
21777;SDS011;11050;52.222;20.916;2022-09-09T02:34:05;16.38;;;9.32;;
21777;SDS011;11050;52.222;20.916;2022-09-09T02:36:35;15.20;;;10.05;;
21777;SDS011;11050;52.222;20.916;2022-09-09T02:39:05;16.48;;;9.93;;
21777;SDS011;11050;52.222;20.916;2022-09-09T02:41:35;15.63;;;9.52;;
21777;SDS011;11050;52.222;20.916;2022-09-09T02:44:08;14.48;;;9.73;;
21777;SDS011;11050;52.222;20.916;2022-09-09T02:46:54;14.07;;;9.38;;
21777;SDS011;11050;52.222;20.916;2022-09-09T02:53:06;15.40;;;9.73;;
21777;SDS011;11050;52.222;20.916;2022-09-09T02:55:46;14.68;;;9.73;;
21777;SDS011;11050;52.222;20.916;2022-09-09T02:58:19;15.90;;;9.70;;
21777;SDS011;11050;52.222;20.916;2022-09-09T03:00:47;15.60;;;10.13;;
21777;SDS011;11050;52.222;20.916;2022-09-09T03:03:16;17.67;;;10.15;;
21777;SDS011;11050;52.222;20.916;2022-09-09T03:05:43;20.45;;;10.32;;
21777;SDS011;11050;52.222;20.916;2022-09-09T03:08:10;15.70;;;9.60;;
21777;SDS011;11050;52.222;20.916;2022-09-09T03:10:38;17.27;;;10.30;;
21777;SDS011;11050;52.222;20.916;2022-09-09T03:13:04;14.45;;;10.15;;
21777;SDS011;11050;52.222;20.916;2022-09-09T03:15:31;13.50;;;9.57;;
21777;SDS011;11050;52.222;20.916;2022-09-09T03:17:58;14.80;;;9.20;;
21777;SDS011;11050;52.222;20.916;2022-09-09T03:20:25;14.45;;;9.57;;
21777;SDS011;11050;52.222;20.916;2022-09-09T03:22:53;15.02;;;9.70;;
21777;SDS011;11050;52.222;20.916;2022-09-09T03:25:20;14.50;;;9.15;;
21777;SDS011;11050;52.222;20.916;2022-09-09T03:27:50;15.20;;;9.23;;
21777;SDS011;11050;52.222;20.916;2022-09-09T03:30:19;12.70;;;9.30;;
21777;SDS011;11050;52.222;20.916;2022-09-09T03:32:47;16.63;;;10.13;;
21777;SDS011;11050;52.222;20.916;2022-09-09T03:35:13;13.82;;;8.70;;
21777;SDS011;11050;52.222;20.916;2022-09-09T03:37:40;12.70;;;8.48;;
21777;SDS011;11050;52.222;20.916;2022-09-09T03:40:06;12.40;;;7.88;;
21777;SDS011;11050;52.222;20.916;2022-09-09T03:42:34;13.75;;;8.80;;
21777;SDS011;11050;52.222;20.916;2022-09-09T03:45:02;12.95;;;9.18;;
21777;SDS011;11050;52.222;20.916;2022-09-09T03:47:30;12.98;;;8.63;;
21777;SDS011;11050;52.222;20.916;2022-09-09T03:49:56;11.45;;;8.18;;
21777;SDS011;11050;52.222;20.916;2022-09-09T03:52:22;12.13;;;8.43;;
21777;SDS011;11050;52.222;20.916;2022-09-09T03:54:50;12.25;;;8.52;;
21777;SDS011;11050;52.222;20.916;2022-09-09T03:57:16;11.65;;;8.23;;
21777;SDS011;11050;52.222;20.916;2022-09-09T03:59:43;13.13;;;8.98;;
21777;SDS011;11050;52.222;20.916;2022-09-09T04:02:09;12.15;;;8.48;;
21777;SDS011;11050;52.222;20.916;2022-09-09T04:04:35;12.18;;;8.40;;
21777;SDS011;11050;52.222;20.916;2022-09-09T04:07:00;9.27;;;7.97;;
21777;SDS011;11050;52.222;20.916;2022-09-09T04:09:27;13.05;;;9.15;;
21777;SDS011;11050;52.222;20.916;2022-09-09T04:11:53;11.40;;;8.25;;
21777;SDS011;11050;52.222;20.916;2022-09-09T04:14:19;15.10;;;8.90;;
21777;SDS011;11050;52.222;20.916;2022-09-09T04:16:45;12.45;;;8.77;;
21777;SDS011;11050;52.222;20.916;2022-09-09T04:19:11;11.13;;;7.78;;
21777;SDS011;11050;52.222;20.916;2022-09-09T04:21:41;10.93;;;8.27;;
21777;SDS011;11050;52.222;20.916;2022-09-09T04:24:07;10.85;;;8.10;;
21777;SDS011;11050;52.222;20.916;2022-09-09T04:26:34;9.38;;;7.55;;
21777;SDS011;11050;52.222;20.916;2022-09-09T04:29:01;11.57;;;8.02;;
21777;SDS011;11050;52.222;20.916;2022-09-09T04:31:29;11.25;;;8.75;;
21777;SDS011;11050;52.222;20.916;2022-09-09T04:33:55;12.82;;;8.90;;
21777;SDS011;11050;52.222;20.916;2022-09-09T04:36:21;13.75;;;8.30;;
21777;SDS011;11050;52.222;20.916;2022-09-09T04:38:47;11.18;;;8.40;;
21777;SDS011;11050;52.222;20.916;2022-09-09T04:41:16;12.13;;;8.75;;
21777;SDS011;11050;52.222;20.916;2022-09-09T04:43:42;11.70;;;7.85;;
21777;SDS011;11050;52.222;20.916;2022-09-09T04:46:08;11.60;;;8.13;;
21777;SDS011;11050;52.222;20.916;2022-09-09T04:48:35;10.38;;;8.38;;
21777;SDS011;11050;52.222;20.916;2022-09-09T04:51:01;11.38;;;8.20;;
21777;SDS011;11050;52.222;20.916;2022-09-09T04:53:31;11.95;;;8.23;;
21777;SDS011;11050;52.222;20.916;2022-09-09T04:56:08;11.40;;;8.40;;
21777;SDS011;11050;52.222;20.916;2022-09-09T04:58:38;10.18;;;7.97;;
21777;SDS011;11050;52.222;20.916;2022-09-09T05:01:18;10.48;;;7.57;;
21777;SDS011;11050;52.222;20.916;2022-09-09T05:03:46;9.23;;;7.40;;
21777;SDS011;11050;52.222;20.916;2022-09-09T05:06:14;12.02;;;7.75;;
21777;SDS011;11050;52.222;20.916;2022-09-09T05:08:45;12.63;;;8.25;;
21777;SDS011;11050;52.222;20.916;2022-09-09T05:13:48;11.13;;;8.32;;
21777;SDS011;11050;52.222;20.916;2022-09-09T05:16:15;9.18;;;7.40;;
21777;SDS011;11050;52.222;20.916;2022-09-09T05:18:42;10.95;;;7.28;;
21777;SDS011;11050;52.222;20.916;2022-09-09T05:21:09;9.65;;;7.45;;
21777;SDS011;11050;52.222;20.916;2022-09-09T05:23:36;9.13;;;7.15;;
21777;SDS011;11050;52.222;20.916;2022-09-09T05:26:03;11.77;;;7.10;;
21777;SDS011;11050;52.222;20.916;2022-09-09T05:28:30;10.50;;;7.72;;
21777;SDS011;11050;52.222;20.916;2022-09-09T05:31:04;10.45;;;7.25;;
21777;SDS011;11050;52.222;20.916;2022-09-09T05:33:37;10.68;;;7.55;;
21777;SDS011;11050;52.222;20.916;2022-09-09T05:36:12;10.32;;;7.65;;
21777;SDS011;11050;52.222;20.916;2022-09-09T05:38:40;9.73;;;7.78;;
21777;SDS011;11050;52.222;20.916;2022-09-09T05:41:07;10.70;;;7.97;;
21777;SDS011;11050;52.222;20.916;2022-09-09T05:43:36;10.85;;;7.10;;
21777;SDS011;11050;52.222;20.916;2022-09-09T05:46:04;11.00;;;7.22;;
21777;SDS011;11050;52.222;20.916;2022-09-09T05:48:43;9.88;;;7.43;;
21777;SDS011;11050;52.222;20.916;2022-09-09T05:51:12;10.60;;;7.78;;
21777;SDS011;11050;52.222;20.916;2022-09-09T05:53:44;8.73;;;6.68;;
21777;SDS011;11050;52.222;20.916;2022-09-09T05:56:11;13.05;;;7.07;;
21777;SDS011;11050;52.222;20.916;2022-09-09T05:58:44;11.65;;;7.03;;
21777;SDS011;11050;52.222;20.916;2022-09-09T06:01:17;11.27;;;7.03;;
21777;SDS011;11050;52.222;20.916;2022-09-09T06:03:46;10.70;;;7.03;;
21777;SDS011;11050;52.222;20.916;2022-09-09T06:06:18;9.43;;;7.40;;
21777;SDS011;11050;52.222;20.916;2022-09-09T06:08:47;9.10;;;7.35;;
21777;SDS011;11050;52.222;20.916;2022-09-09T06:11:17;10.23;;;7.22;;
21777;SDS011;11050;52.222;20.916;2022-09-09T06:13:49;10.77;;;7.65;;
21777;SDS011;11050;52.222;20.916;2022-09-09T06:16:20;8.45;;;6.78;;
21777;SDS011;11050;52.222;20.916;2022-09-09T06:18:50;10.35;;;7.18;;
21777;SDS011;11050;52.222;20.916;2022-09-09T06:21:19;9.70;;;7.70;;
21777;SDS011;11050;52.222;20.916;2022-09-09T06:23:47;8.20;;;6.78;;
21777;SDS011;11050;52.222;20.916;2022-09-09T06:29:07;8.27;;;6.63;;
21777;SDS011;11050;52.222;20.916;2022-09-09T06:31:34;11.80;;;7.78;;
21777;SDS011;11050;52.222;20.916;2022-09-09T06:34:03;9.80;;;7.03;;
21777;SDS011;11050;52.222;20.916;2022-09-09T06:36:32;8.63;;;7.20;;
21777;SDS011;11050;52.222;20.916;2022-09-09T06:39:01;9.13;;;6.60;;
21777;SDS011;11050;52.222;20.916;2022-09-09T06:41:29;7.47;;;6.43;;
21777;SDS011;11050;52.222;20.916;2022-09-09T06:43:58;8.98;;;7.55;;
21777;SDS011;11050;52.222;20.916;2022-09-09T06:46:28;9.32;;;7.35;;
21777;SDS011;11050;52.222;20.916;2022-09-09T06:48:57;9.52;;;7.70;;
21777;SDS011;11050;52.222;20.916;2022-09-09T06:51:31;7.93;;;6.97;;
21777;SDS011;11050;52.222;20.916;2022-09-09T06:54:00;9.52;;;7.53;;
21777;SDS011;11050;52.222;20.916;2022-09-09T06:56:29;9.23;;;7.25;;
21777;SDS011;11050;52.222;20.916;2022-09-09T06:59:05;9.60;;;7.18;;
21777;SDS011;11050;52.222;20.916;2022-09-09T07:01:35;11.82;;;8.43;;
21777;SDS011;11050;52.222;20.916;2022-09-09T07:04:03;8.35;;;7.45;;
21777;SDS011;11050;52.222;20.916;2022-09-09T07:06:33;10.48;;;7.95;;
21777;SDS011;11050;52.222;20.916;2022-09-09T07:09:05;10.30;;;7.78;;
21777;SDS011;11050;52.222;20.916;2022-09-09T07:11:41;11.05;;;8.25;;
21777;SDS011;11050;52.222;20.916;2022-09-09T07:14:10;11.18;;;7.50;;
21777;SDS011;11050;52.222;20.916;2022-09-09T07:16:39;10.93;;;8.63;;
21777;SDS011;11050;52.222;20.916;2022-09-09T07:19:10;9.82;;;8.02;;
21777;SDS011;11050;52.222;20.916;2022-09-09T07:21:37;9.38;;;8.38;;
21777;SDS011;11050;52.222;20.916;2022-09-09T07:24:05;11.35;;;7.90;;
21777;SDS011;11050;52.222;20.916;2022-09-09T07:26:32;9.02;;;8.07;;
21777;SDS011;11050;52.222;20.916;2022-09-09T07:28:59;10.73;;;8.52;;
21777;SDS011;11050;52.222;20.916;2022-09-09T07:31:26;11.10;;;8.40;;
21777;SDS011;11050;52.222;20.916;2022-09-09T07:33:58;13.18;;;8.63;;
21777;SDS011;11050;52.222;20.916;2022-09-09T07:36:26;11.63;;;9.27;;
21777;SDS011;11050;52.222;20.916;2022-09-09T07:39:05;11.55;;;9.32;;
21777;SDS011;11050;52.222;20.916;2022-09-09T07:41:42;12.65;;;8.65;;
21777;SDS011;11050;52.222;20.916;2022-09-09T07:44:18;10.65;;;8.60;;
21777;SDS011;11050;52.222;20.916;2022-09-09T07:46:46;14.30;;;10.20;;
21777;SDS011;11050;52.222;20.916;2022-09-09T07:49:12;12.85;;;9.65;;
21777;SDS011;11050;52.222;20.916;2022-09-09T07:51:40;13.95;;;9.63;;
21777;SDS011;11050;52.222;20.916;2022-09-09T07:54:11;16.08;;;10.38;;
21777;SDS011;11050;52.222;20.916;2022-09-09T07:56:40;14.20;;;9.90;;
21777;SDS011;11050;52.222;20.916;2022-09-09T07:59:07;13.93;;;10.52;;
21777;SDS011;11050;52.222;20.916;2022-09-09T08:01:39;14.27;;;9.65;;
21777;SDS011;11050;52.222;20.916;2022-09-09T08:04:10;16.08;;;10.02;;
21777;SDS011;11050;52.222;20.916;2022-09-09T08:07:03;15.20;;;10.57;;
21777;SDS011;11050;52.222;20.916;2022-09-09T08:09:28;13.38;;;9.70;;
21777;SDS011;11050;52.222;20.916;2022-09-09T08:11:54;13.90;;;10.65;;
21777;SDS011;11050;52.222;20.916;2022-09-09T08:14:22;13.65;;;9.88;;
21777;SDS011;11050;52.222;20.916;2022-09-09T08:16:48;12.63;;;10.27;;
21777;SDS011;11050;52.222;20.916;2022-09-09T08:19:16;14.93;;;10.35;;
21777;SDS011;11050;52.222;20.916;2022-09-09T08:21:42;12.95;;;10.50;;
21777;SDS011;11050;52.222;20.916;2022-09-09T08:24:10;15.88;;;10.85;;
21777;SDS011;11050;52.222;20.916;2022-09-09T08:26:40;17.73;;;11.35;;
21777;SDS011;11050;52.222;20.916;2022-09-09T08:29:09;20.20;;;11.63;;
21777;SDS011;11050;52.222;20.916;2022-09-09T08:31:39;20.92;;;11.60;;
21777;SDS011;11050;52.222;20.916;2022-09-09T08:34:08;20.38;;;13.40;;
21777;SDS011;11050;52.222;20.916;2022-09-09T08:36:35;23.17;;;12.82;;
21777;SDS011;11050;52.222;20.916;2022-09-09T08:39:06;19.25;;;11.95;;
21777;SDS011;11050;52.222;20.916;2022-09-09T08:41:41;20.45;;;13.50;;
21777;SDS011;11050;52.222;20.916;2022-09-09T08:58:13;16.60;;;12.30;;
21777;SDS011;11050;52.222;20.916;2022-09-09T09:00:54;19.08;;;12.95;;
21777;SDS011;11050;52.222;20.916;2022-09-09T09:11:52;20.58;;;13.68;;
21777;SDS011;11050;52.222;20.916;2022-09-09T09:14:29;19.73;;;13.88;;
21777;SDS011;11050;52.222;20.916;2022-09-09T09:19:44;22.00;;;15.02;;
21777;SDS011;11050;52.222;20.916;2022-09-09T09:25:16;17.38;;;12.20;;
21777;SDS011;11050;52.222;20.916;2022-09-09T09:27:49;22.27;;;15.00;;
21777;SDS011;11050;52.222;20.916;2022-09-09T09:36:18;25.40;;;15.35;;
21777;SDS011;11050;52.222;20.916;2022-09-09T09:38:55;25.55;;;16.35;;
21777;SDS011;11050;52.222;20.916;2022-09-09T09:41:41;23.10;;;14.98;;
21777;SDS011;11050;52.222;20.916;2022-09-09T09:46:51;21.35;;;15.45;;
21777;SDS011;11050;52.222;20.916;2022-09-09T09:49:18;23.15;;;15.52;;
21777;SDS011;11050;52.222;20.916;2022-09-09T09:51:44;23.60;;;14.43;;
21777;SDS011;11050;52.222;20.916;2022-09-09T09:56:43;24.85;;;15.63;;
21777;SDS011;11050;52.222;20.916;2022-09-09T10:02:18;22.23;;;16.23;;
21777;SDS011;11050;52.222;20.916;2022-09-09T10:19:21;25.27;;;16.50;;
21777;SDS011;11050;52.222;20.916;2022-09-09T10:37:00;24.73;;;17.52;;
21777;SDS011;11050;52.222;20.916;2022-09-09T10:39:38;28.17;;;18.38;;
21777;SDS011;11050;52.222;20.916;2022-09-09T10:42:09;29.48;;;17.77;;
21777;SDS011;11050;52.222;20.916;2022-09-09T10:47:54;33.60;;;19.55;;
21777;SDS011;11050;52.222;20.916;2022-09-09T10:50:29;33.42;;;19.65;;
21777;SDS011;11050;52.222;20.916;2022-09-09T10:53:08;30.58;;;18.45;;
21777;SDS011;11050;52.222;20.916;2022-09-09T10:56:06;26.65;;;17.90;;
21777;SDS011;11050;52.222;20.916;2022-09-09T10:58:47;33.75;;;18.67;;
21777;SDS011;11050;52.222;20.916;2022-09-09T11:01:41;30.20;;;19.17;;
21777;SDS011;11050;52.222;20.916;2022-09-09T11:04:52;35.60;;;20.70;;
21777;SDS011;11050;52.222;20.916;2022-09-09T11:10:11;30.83;;;19.13;;
21777;SDS011;11050;52.222;20.916;2022-09-09T11:12:56;31.15;;;19.52;;
21777;SDS011;11050;52.222;20.916;2022-09-09T11:15:31;31.65;;;20.77;;
21777;SDS011;11050;52.222;20.916;2022-09-09T11:18:10;36.10;;;21.42;;
21777;SDS011;11050;52.222;20.916;2022-09-09T11:20:45;30.73;;;20.08;;
21777;SDS011;11050;52.222;20.916;2022-09-09T11:23:29;35.88;;;20.77;;
21777;SDS011;11050;52.222;20.916;2022-09-09T11:26:10;34.65;;;21.13;;
21777;SDS011;11050;52.222;20.916;2022-09-09T11:38:26;35.40;;;20.20;;
21777;SDS011;11050;52.222;20.916;2022-09-09T11:41:04;35.60;;;20.52;;
21777;SDS011;11050;52.222;20.916;2022-09-09T11:46:14;38.75;;;23.25;;
21777;SDS011;11050;52.222;20.916;2022-09-09T11:48:45;35.20;;;22.67;;
21777;SDS011;11050;52.222;20.916;2022-09-09T11:53:54;36.95;;;21.33;;
21777;SDS011;11050;52.222;20.916;2022-09-09T12:02:01;40.15;;;23.90;;
21777;SDS011;11050;52.222;20.916;2022-09-09T12:07:41;41.17;;;24.00;;
21777;SDS011;11050;52.222;20.916;2022-09-09T12:10:25;36.22;;;23.05;;
21777;SDS011;11050;52.222;20.916;2022-09-09T12:13:23;35.53;;;22.50;;
21777;SDS011;11050;52.222;20.916;2022-09-09T12:18:21;41.05;;;23.95;;
21777;SDS011;11050;52.222;20.916;2022-09-09T12:20:59;41.90;;;24.27;;
21777;SDS011;11050;52.222;20.916;2022-09-09T12:23:59;46.03;;;23.90;;
21777;SDS011;11050;52.222;20.916;2022-09-09T12:27:07;46.33;;;25.50;;
21777;SDS011;11050;52.222;20.916;2022-09-09T12:30:12;40.20;;;23.27;;
21777;SDS011;11050;52.222;20.916;2022-09-09T12:32:41;41.75;;;24.80;;
21777;SDS011;11050;52.222;20.916;2022-09-09T12:37:46;42.20;;;24.67;;
21777;SDS011;11050;52.222;20.916;2022-09-09T12:40:28;45.55;;;24.95;;
21777;SDS011;11050;52.222;20.916;2022-09-09T12:42:57;44.60;;;25.38;;
21777;SDS011;11050;52.222;20.916;2022-09-09T12:45:28;45.92;;;26.83;;
21777;SDS011;11050;52.222;20.916;2022-09-09T12:48:07;43.58;;;25.23;;
21777;SDS011;11050;52.222;20.916;2022-09-09T12:50:46;41.72;;;24.15;;
21777;SDS011;11050;52.222;20.916;2022-09-09T12:56:01;50.03;;;28.75;;
21777;SDS011;11050;52.222;20.916;2022-09-09T12:58:35;48.85;;;27.17;;
21777;SDS011;11050;52.222;20.916;2022-09-09T13:01:03;44.28;;;25.13;;
21777;SDS011;11050;52.222;20.916;2022-09-09T13:03:31;45.30;;;25.35;;
21777;SDS011;11050;52.222;20.916;2022-09-09T13:06:12;43.75;;;25.88;;
21777;SDS011;11050;52.222;20.916;2022-09-09T13:08:48;43.42;;;25.63;;
21777;SDS011;11050;52.222;20.916;2022-09-09T13:11:20;47.53;;;26.35;;
21777;SDS011;11050;52.222;20.916;2022-09-09T13:14:19;47.85;;;26.83;;
21777;SDS011;11050;52.222;20.916;2022-09-09T13:17:01;46.05;;;26.33;;
21777;SDS011;11050;52.222;20.916;2022-09-09T13:19:31;43.42;;;25.67;;
21777;SDS011;11050;52.222;20.916;2022-09-09T13:22:20;45.55;;;26.40;;
21777;SDS011;11050;52.222;20.916;2022-09-09T13:25:20;49.83;;;28.30;;
21777;SDS011;11050;52.222;20.916;2022-09-09T13:28:01;48.75;;;27.08;;
21777;SDS011;11050;52.222;20.916;2022-09-09T13:30:31;44.95;;;27.10;;
21777;SDS011;11050;52.222;20.916;2022-09-09T13:35:54;49.33;;;28.50;;
21777;SDS011;11050;52.222;20.916;2022-09-09T13:38:24;49.00;;;28.38;;
21777;SDS011;11050;52.222;20.916;2022-09-09T13:41:00;44.85;;;25.65;;
21777;SDS011;11050;52.222;20.916;2022-09-09T13:43:43;48.70;;;27.25;;
21777;SDS011;11050;52.222;20.916;2022-09-09T13:51:40;48.35;;;27.20;;
21777;SDS011;11050;52.222;20.916;2022-09-09T13:54:16;45.25;;;26.85;;
21777;SDS011;11050;52.222;20.916;2022-09-09T13:56:45;51.70;;;28.15;;
21777;SDS011;11050;52.222;20.916;2022-09-09T13:59:15;47.78;;;27.25;;
21777;SDS011;11050;52.222;20.916;2022-09-09T14:01:45;50.47;;;28.45;;
21777;SDS011;11050;52.222;20.916;2022-09-09T14:04:11;48.42;;;28.25;;
21777;SDS011;11050;52.222;20.916;2022-09-09T14:06:37;53.33;;;27.70;;
21777;SDS011;11050;52.222;20.916;2022-09-09T14:09:05;53.22;;;26.60;;
21777;SDS011;11050;52.222;20.916;2022-09-09T14:11:32;50.55;;;28.05;;
21777;SDS011;11050;52.222;20.916;2022-09-09T14:13:58;54.72;;;27.33;;
21777;SDS011;11050;52.222;20.916;2022-09-09T14:16:23;49.80;;;28.05;;
21777;SDS011;11050;52.222;20.916;2022-09-09T14:18:52;47.22;;;25.83;;
21777;SDS011;11050;52.222;20.916;2022-09-09T14:21:21;49.30;;;27.55;;
21777;SDS011;11050;52.222;20.916;2022-09-09T14:23:47;53.38;;;27.67;;
21777;SDS011;11050;52.222;20.916;2022-09-09T14:26:13;45.30;;;26.25;;
21777;SDS011;11050;52.222;20.916;2022-09-09T14:28:39;42.58;;;24.05;;
21777;SDS011;11050;52.222;20.916;2022-09-09T14:31:06;43.33;;;25.63;;
21777;SDS011;11050;52.222;20.916;2022-09-09T14:33:32;48.83;;;25.05;;
21777;SDS011;11050;52.222;20.916;2022-09-09T14:36:00;40.53;;;22.85;;
21777;SDS011;11050;52.222;20.916;2022-09-09T14:38:29;43.17;;;23.42;;
21777;SDS011;11050;52.222;20.916;2022-09-09T14:41:00;50.08;;;25.65;;
21777;SDS011;11050;52.222;20.916;2022-09-09T14:43:29;47.45;;;25.20;;
21777;SDS011;11050;52.222;20.916;2022-09-09T14:45:57;47.63;;;24.55;;
21777;SDS011;11050;52.222;20.916;2022-09-09T14:48:44;45.65;;;24.75;;
21777;SDS011;11050;52.222;20.916;2022-09-09T14:51:20;45.42;;;24.63;;
21777;SDS011;11050;52.222;20.916;2022-09-09T14:53:52;42.50;;;23.75;;
21777;SDS011;11050;52.222;20.916;2022-09-09T14:56:25;42.30;;;23.23;;
21777;SDS011;11050;52.222;20.916;2022-09-09T14:58:55;44.22;;;23.10;;
21777;SDS011;11050;52.222;20.916;2022-09-09T15:01:22;45.75;;;23.40;;
21777;SDS011;11050;52.222;20.916;2022-09-09T15:03:55;49.78;;;25.40;;
21777;SDS011;11050;52.222;20.916;2022-09-09T15:06:24;42.45;;;22.70;;
21777;SDS011;11050;52.222;20.916;2022-09-09T15:08:54;42.17;;;23.95;;
21777;SDS011;11050;52.222;20.916;2022-09-09T15:11:25;47.83;;;24.88;;
21777;SDS011;11050;52.222;20.916;2022-09-09T15:13:55;47.28;;;23.95;;
21777;SDS011;11050;52.222;20.916;2022-09-09T15:16:22;46.20;;;24.42;;
21777;SDS011;11050;52.222;20.916;2022-09-09T15:18:51;44.80;;;23.83;;
21777;SDS011;11050;52.222;20.916;2022-09-09T15:21:21;37.05;;;21.73;;
21777;SDS011;11050;52.222;20.916;2022-09-09T15:23:49;40.50;;;23.05;;
21777;SDS011;11050;52.222;20.916;2022-09-09T15:26:16;42.80;;;21.85;;
21777;SDS011;11050;52.222;20.916;2022-09-09T15:28:43;41.08;;;22.38;;
21777;SDS011;11050;52.222;20.916;2022-09-09T15:31:30;39.88;;;23.50;;
21777;SDS011;11050;52.222;20.916;2022-09-09T15:33:57;42.97;;;24.48;;
21777;SDS011;11050;52.222;20.916;2022-09-09T15:36:32;48.45;;;26.25;;
21777;SDS011;11050;52.222;20.916;2022-09-09T15:39:04;48.55;;;26.65;;
21777;SDS011;11050;52.222;20.916;2022-09-09T15:41:37;46.85;;;26.35;;
21777;SDS011;11050;52.222;20.916;2022-09-09T15:44:05;47.28;;;26.48;;
21777;SDS011;11050;52.222;20.916;2022-09-09T15:46:38;50.95;;;26.85;;
21777;SDS011;11050;52.222;20.916;2022-09-09T15:49:14;49.97;;;26.45;;
21777;SDS011;11050;52.222;20.916;2022-09-09T15:51:44;46.75;;;25.42;;
21777;SDS011;11050;52.222;20.916;2022-09-09T15:54:18;51.10;;;26.38;;
21777;SDS011;11050;52.222;20.916;2022-09-09T15:56:55;40.58;;;24.33;;
21777;SDS011;11050;52.222;20.916;2022-09-09T15:59:24;45.50;;;25.48;;
21777;SDS011;11050;52.222;20.916;2022-09-09T16:01:53;39.70;;;25.27;;
21777;SDS011;11050;52.222;20.916;2022-09-09T16:04:20;40.97;;;24.65;;
21777;SDS011;11050;52.222;20.916;2022-09-09T16:06:51;37.33;;;23.52;;
21777;SDS011;11050;52.222;20.916;2022-09-09T16:09:18;41.42;;;24.63;;
21777;SDS011;11050;52.222;20.916;2022-09-09T16:11:45;37.70;;;23.40;;
21777;SDS011;11050;52.222;20.916;2022-09-09T16:14:12;42.53;;;25.65;;
21777;SDS011;11050;52.222;20.916;2022-09-09T16:16:40;47.22;;;27.25;;
21777;SDS011;11050;52.222;20.916;2022-09-09T16:19:08;54.97;;;28.60;;
21777;SDS011;11050;52.222;20.916;2022-09-09T16:21:45;45.45;;;26.80;;
21777;SDS011;11050;52.222;20.916;2022-09-09T16:24:14;49.35;;;26.85;;
21777;SDS011;11050;52.222;20.916;2022-09-09T16:26:49;44.85;;;26.30;;
21777;SDS011;11050;52.222;20.916;2022-09-09T16:29:19;41.78;;;24.40;;
21777;SDS011;11050;52.222;20.916;2022-09-09T16:31:46;44.60;;;26.23;;
21777;SDS011;11050;52.222;20.916;2022-09-09T16:34:13;42.30;;;24.88;;
21777;SDS011;11050;52.222;20.916;2022-09-09T16:36:42;45.70;;;26.20;;
21777;SDS011;11050;52.222;20.916;2022-09-09T16:39:10;44.47;;;26.42;;
21777;SDS011;11050;52.222;20.916;2022-09-09T16:41:42;41.95;;;25.75;;
21777;SDS011;11050;52.222;20.916;2022-09-09T16:44:10;51.42;;;27.02;;
21777;SDS011;11050;52.222;20.916;2022-09-09T16:46:39;44.35;;;25.77;;
21777;SDS011;11050;52.222;20.916;2022-09-09T16:49:09;44.05;;;24.75;;
21777;SDS011;11050;52.222;20.916;2022-09-09T16:51:39;42.25;;;24.70;;
21777;SDS011;11050;52.222;20.916;2022-09-09T16:54:09;44.90;;;26.05;;
21777;SDS011;11050;52.222;20.916;2022-09-09T16:56:37;44.15;;;25.33;;
21777;SDS011;11050;52.222;20.916;2022-09-09T16:59:11;47.58;;;27.30;;
21777;SDS011;11050;52.222;20.916;2022-09-09T17:01:43;48.22;;;26.13;;
21777;SDS011;11050;52.222;20.916;2022-09-09T17:04:13;39.83;;;23.70;;
21777;SDS011;11050;52.222;20.916;2022-09-09T17:06:45;44.10;;;25.38;;
21777;SDS011;11050;52.222;20.916;2022-09-09T17:09:17;40.40;;;23.25;;
21777;SDS011;11050;52.222;20.916;2022-09-09T17:11:45;40.30;;;25.67;;
21777;SDS011;11050;52.222;20.916;2022-09-09T17:14:13;42.65;;;26.02;;
21777;SDS011;11050;52.222;20.916;2022-09-09T17:16:42;46.10;;;26.50;;
21777;SDS011;11050;52.222;20.916;2022-09-09T17:19:08;41.30;;;24.52;;
21777;SDS011;11050;52.222;20.916;2022-09-09T17:21:35;43.60;;;24.42;;
21777;SDS011;11050;52.222;20.916;2022-09-09T17:24:02;41.17;;;24.15;;
21777;SDS011;11050;52.222;20.916;2022-09-09T17:26:29;40.33;;;24.08;;
21777;SDS011;11050;52.222;20.916;2022-09-09T17:28:58;40.13;;;23.75;;
21777;SDS011;11050;52.222;20.916;2022-09-09T17:31:26;40.38;;;22.52;;
21777;SDS011;11050;52.222;20.916;2022-09-09T17:33:54;37.28;;;23.80;;